createdAt,value
2018-08-28T00:00:20.107Z,1.20
2018-08-28T00:02:48.483Z,2.00
2018-08-28T00:05:16.946Z,1.30
2018-08-28T00:07:45.444Z,1.57
2018-08-28T00:10:13.963Z,1.20
2018-08-28T00:12:42.457Z,1.67
2018-08-28T00:15:10.701Z,1.20
2018-08-28T00:17:39.055Z,1.53
2018-08-28T00:20:07.584Z,1.10
2018-08-28T00:22:35.836Z,1.40
2018-08-28T00:25:04.185Z,1.37
2018-08-28T00:27:32.502Z,1.27
2018-08-28T00:30:00.814Z,1.40
2018-08-28T00:32:29.271Z,1.20
2018-08-28T00:34:57.670Z,1.33
2018-08-28T00:37:26.052Z,1.10
2018-08-28T00:39:54.490Z,1.13
2018-08-28T00:42:22.776Z,1.03
2018-08-28T00:44:51.071Z,1.00
2018-08-28T00:47:19.579Z,1.30
2018-08-28T00:49:48.081Z,1.50
2018-08-28T00:52:16.660Z,1.40
2018-08-28T00:54:44.979Z,1.50
2018-08-28T00:57:13.249Z,2.07
2018-08-28T00:59:41.559Z,1.40
2018-08-28T01:02:10.187Z,1.60
2018-08-28T01:04:38.586Z,1.30
2018-08-28T01:07:07.021Z,1.80
2018-08-28T01:09:35.609Z,2.53
2018-08-28T01:12:03.805Z,1.57
2018-08-28T01:14:32.060Z,1.93
2018-08-28T01:17:00.363Z,2.30
2018-08-28T01:19:28.573Z,1.17
2018-08-28T01:21:56.923Z,1.43
2018-08-28T01:24:25.140Z,1.70
2018-08-28T01:26:53.380Z,1.37
2018-08-28T01:29:21.868Z,1.60
2018-08-28T01:31:50.303Z,1.30
2018-08-28T01:34:18.627Z,2.70
2018-08-28T01:36:46.994Z,1.50
2018-08-28T01:39:15.337Z,1.30
2018-08-28T01:41:43.742Z,1.40
2018-08-28T01:44:12.135Z,1.30
2018-08-28T01:46:40.410Z,1.57
2018-08-28T01:49:08.652Z,2.00
2018-08-28T01:51:36.922Z,1.10
2018-08-28T01:54:07.100Z,1.57
2018-08-28T01:56:35.337Z,1.80
2018-08-28T01:59:03.717Z,1.70
2018-08-28T02:01:31.994Z,1.40
2018-08-28T02:04:00.213Z,1.33
2018-08-28T02:06:28.426Z,1.30
2018-08-28T02:08:56.609Z,2.13
2018-08-28T02:11:25.255Z,1.67
2018-08-28T02:13:53.662Z,1.43
2018-08-28T02:16:22.161Z,1.20
2018-08-28T02:18:50.584Z,1.30
2018-08-28T02:21:18.924Z,1.47
2018-08-28T02:23:47.181Z,1.23
2018-08-28T02:26:15.638Z,1.30
2018-08-28T02:28:43.978Z,1.27
2018-08-28T02:31:12.292Z,1.80
2018-08-28T02:33:40.693Z,1.50
2018-08-28T02:36:09.199Z,1.33
2018-08-28T02:38:37.423Z,1.40
2018-08-28T02:41:05.883Z,1.40
2018-08-28T02:43:34.134Z,1.30
2018-08-28T02:46:02.390Z,1.30
2018-08-28T02:48:30.607Z,1.30
2018-08-28T02:50:59.075Z,1.67
2018-08-28T02:53:27.355Z,1.40
2018-08-28T02:55:55.681Z,1.20
2018-08-28T02:58:24.057Z,1.37
2018-08-28T03:00:52.316Z,1.00
2018-08-28T03:03:20.811Z,1.30
2018-08-28T03:05:49.090Z,1.07
2018-08-28T03:08:17.424Z,1.53
2018-08-28T03:10:45.843Z,1.60
2018-08-28T03:13:14.308Z,1.47
2018-08-28T03:15:42.661Z,1.40
2018-08-28T03:18:10.833Z,1.47
2018-08-28T03:20:38.980Z,1.37
2018-08-28T03:23:07.098Z,1.47
2018-08-28T03:25:35.453Z,1.40
2018-08-28T03:28:03.858Z,1.33
2018-08-28T03:30:32.121Z,1.20
2018-08-28T03:33:00.440Z,1.30
2018-08-28T03:35:28.797Z,1.47
2018-08-28T03:37:57.066Z,2.17
2018-08-28T03:40:25.320Z,1.13
2018-08-28T03:42:53.692Z,1.50
2018-08-28T03:45:21.934Z,1.40
2018-08-28T03:47:50.182Z,1.30
2018-08-28T03:50:18.357Z,1.30
2018-08-28T03:52:46.596Z,2.00
2018-08-28T03:55:14.838Z,1.40
2018-08-28T03:57:43.109Z,1.63
2018-08-28T04:00:11.289Z,1.70
2018-08-28T04:02:39.658Z,1.67
2018-08-28T04:05:07.833Z,1.37
2018-08-28T04:07:36.147Z,2.13
2018-08-28T04:10:04.341Z,1.37
2018-08-28T04:12:32.490Z,1.60
2018-08-28T04:15:00.653Z,1.30
2018-08-28T04:17:28.838Z,1.60
2018-08-28T04:19:57.037Z,1.40
2018-08-28T04:22:25.217Z,1.20
2018-08-28T04:24:53.363Z,1.30
2018-08-28T04:27:21.550Z,1.50
2018-08-28T04:29:49.873Z,2.20
2018-08-28T04:32:18.206Z,1.47
2018-08-28T04:34:46.448Z,1.50
2018-08-28T04:37:15.220Z,1.17
2018-08-28T04:39:43.664Z,1.80
2018-08-28T04:42:11.877Z,1.40
2018-08-28T04:44:40.250Z,1.33
2018-08-28T04:47:08.374Z,1.23
2018-08-28T04:49:36.613Z,1.20
2018-08-28T04:52:04.865Z,1.33
2018-08-28T04:54:32.976Z,1.20
2018-08-28T04:57:01.197Z,1.50
2018-08-28T04:59:29.521Z,1.53
2018-08-28T05:01:57.825Z,1.33
2018-08-28T05:04:26.060Z,1.53
2018-08-28T05:06:54.208Z,1.27
2018-08-28T05:09:23.182Z,1.60
2018-08-28T05:11:51.405Z,1.10
2018-08-28T05:14:19.861Z,1.40
2018-08-28T05:16:48.022Z,1.60
2018-08-28T05:19:16.259Z,1.40
2018-08-28T05:21:44.421Z,1.53
2018-08-28T05:24:12.693Z,1.23
2018-08-28T05:26:40.860Z,1.60
2018-08-28T05:29:09.039Z,1.30
2018-08-28T05:31:37.288Z,1.40
2018-08-28T05:34:05.953Z,1.20
2018-08-28T05:36:34.156Z,1.70
2018-08-28T05:39:05.795Z,1.20
2018-08-28T05:41:33.989Z,1.30
2018-08-28T05:44:02.217Z,1.10
2018-08-28T05:46:30.428Z,1.37
2018-08-28T05:48:58.737Z,1.40
2018-08-28T05:51:27.020Z,2.20
2018-08-28T05:53:55.361Z,1.43
2018-08-28T05:56:23.662Z,1.37
2018-08-28T05:58:52.182Z,1.40
2018-08-28T06:01:20.461Z,1.50
2018-08-28T06:03:48.785Z,1.53
2018-08-28T06:06:17.025Z,1.20
2018-08-28T06:08:45.300Z,1.80
2018-08-28T06:11:13.478Z,1.40
2018-08-28T06:13:41.753Z,1.20
2018-08-28T06:16:09.953Z,1.50
2018-08-28T06:18:38.213Z,1.40
2018-08-28T06:21:06.440Z,1.60
2018-08-28T06:23:34.821Z,1.27
2018-08-28T06:26:03.074Z,2.13
2018-08-28T06:28:31.281Z,2.77
2018-08-28T06:30:59.495Z,2.00
2018-08-28T06:33:27.742Z,1.40
2018-08-28T06:35:56.060Z,1.80
2018-08-28T06:38:24.328Z,1.60
2018-08-28T06:40:52.574Z,1.53
2018-08-28T06:43:20.758Z,1.40
2018-08-28T06:45:49.107Z,1.43
2018-08-28T06:48:17.333Z,1.57
2018-08-28T06:50:45.537Z,2.67
2018-08-28T06:53:13.729Z,2.10
2018-08-28T06:55:41.985Z,2.00
2018-08-28T06:58:10.264Z,1.50
2018-08-28T07:00:38.480Z,2.43
2018-08-28T07:03:06.505Z,1.50
2018-08-28T07:05:34.687Z,1.50
2018-08-28T07:08:02.982Z,1.30
2018-08-28T07:10:31.275Z,1.60
2018-08-28T07:12:59.493Z,2.20
2018-08-28T07:15:27.781Z,1.70
2018-08-28T07:17:56.049Z,2.27
2018-08-28T07:20:24.292Z,1.67
2018-08-28T07:22:52.705Z,1.50
2018-08-28T07:25:20.999Z,1.87
2018-08-28T07:27:49.242Z,1.97
2018-08-28T07:30:17.726Z,2.47
2018-08-28T07:32:45.918Z,3.47
2018-08-28T07:35:14.153Z,1.60
2018-08-28T07:37:42.428Z,2.47
2018-08-28T07:40:10.623Z,1.70
2018-08-28T07:42:38.906Z,2.00
2018-08-28T07:45:07.227Z,1.60
2018-08-28T07:47:35.421Z,1.60
2018-08-28T07:50:03.645Z,1.60
2018-08-28T07:52:31.912Z,1.70
2018-08-28T07:55:00.130Z,1.50
2018-08-28T07:57:28.363Z,1.40
2018-08-28T07:59:56.590Z,2.20
2018-08-28T08:02:25.105Z,1.40
2018-08-28T08:04:53.274Z,1.37
2018-08-28T08:07:21.443Z,2.20
2018-08-28T08:09:49.582Z,1.67
2018-08-28T08:12:17.748Z,2.27
2018-08-28T08:14:45.898Z,2.07
2018-08-28T08:17:14.056Z,1.77
2018-08-28T08:19:42.554Z,2.30
2018-08-28T08:22:10.795Z,1.70
2018-08-28T08:24:38.907Z,2.70
2018-08-28T08:27:07.148Z,1.80
2018-08-28T08:29:35.352Z,1.97
2018-08-28T08:32:03.915Z,2.10
2018-08-28T08:34:32.057Z,2.03
2018-08-28T08:37:00.199Z,3.00
2018-08-28T08:39:28.534Z,1.70
2018-08-28T08:41:56.723Z,1.93
2018-08-28T08:44:24.898Z,2.47
2018-08-28T08:46:53.163Z,2.07
2018-08-28T08:49:21.378Z,2.20
2018-08-28T08:51:49.506Z,2.47
2018-08-28T08:54:17.640Z,3.73
2018-08-28T08:56:45.789Z,2.00
2018-08-28T08:59:13.926Z,2.40
2018-08-28T09:01:42.057Z,2.20
2018-08-28T09:04:10.203Z,2.30
2018-08-28T09:06:38.337Z,2.93
2018-08-28T09:09:06.524Z,2.60
2018-08-28T09:11:34.701Z,2.83
2018-08-28T09:14:02.834Z,2.60
2018-08-28T09:16:30.998Z,2.23
2018-08-28T09:18:59.242Z,2.80
2018-08-28T09:21:27.420Z,2.20
2018-08-28T09:23:55.796Z,1.90
2018-08-28T09:26:23.919Z,2.07
2018-08-28T09:28:52.061Z,2.13
2018-08-28T09:31:21.258Z,2.80
2018-08-28T09:33:49.388Z,1.93
2018-08-28T09:36:17.509Z,2.63
2018-08-28T09:38:45.716Z,2.20
2018-08-28T09:41:13.854Z,2.00
2018-08-28T09:43:42.039Z,2.40
2018-08-28T09:46:10.116Z,2.00
2018-08-28T09:48:38.261Z,1.93
2018-08-28T09:51:06.483Z,2.83
2018-08-28T09:53:34.545Z,2.20
2018-08-28T09:56:02.693Z,2.30
2018-08-28T09:58:30.919Z,2.63
2018-08-28T10:01:04.561Z,2.43
2018-08-28T10:03:32.757Z,2.13
2018-08-28T10:06:01.046Z,2.93
2018-08-28T10:08:29.695Z,1.90
2018-08-28T10:10:57.924Z,2.00
2018-08-28T10:13:26.316Z,2.03
2018-08-28T10:15:54.600Z,2.17
2018-08-28T10:18:22.878Z,2.47
2018-08-28T10:20:51.038Z,3.43
2018-08-28T10:23:19.185Z,2.60
2018-08-28T10:25:47.337Z,2.40
2018-08-28T10:28:15.528Z,1.70
2018-08-28T10:30:43.691Z,2.00
2018-08-28T10:33:11.849Z,2.53
2018-08-28T10:35:39.990Z,2.20
2018-08-28T10:38:08.188Z,2.30
2018-08-28T10:40:36.298Z,2.10
2018-08-28T10:43:04.576Z,1.97
2018-08-28T10:45:32.781Z,2.30
2018-08-28T10:48:01.015Z,2.33
2018-08-28T10:50:30.770Z,1.93
2018-08-28T10:52:59.177Z,2.73
2018-08-28T10:55:27.329Z,2.30
2018-08-28T10:57:55.602Z,2.23
2018-08-28T11:00:23.917Z,2.80
2018-08-28T11:02:52.080Z,1.87
2018-08-28T11:05:20.211Z,2.33
2018-08-28T11:07:48.349Z,2.30
2018-08-28T11:10:16.513Z,2.90
2018-08-28T11:12:44.633Z,2.40
2018-08-28T11:15:12.774Z,2.77
2018-08-28T11:17:40.917Z,2.73
2018-08-28T11:20:09.088Z,2.97
2018-08-28T11:22:37.226Z,2.07
2018-08-28T11:25:05.384Z,2.00
2018-08-28T11:27:34.002Z,2.83
2018-08-28T11:30:02.230Z,2.63
2018-08-28T11:32:30.447Z,2.60
2018-08-28T11:34:59.877Z,2.73
2018-08-28T11:37:28.247Z,3.07
2018-08-28T11:39:56.815Z,3.37
2018-08-28T11:42:25.237Z,1.90
2018-08-28T11:44:53.473Z,2.60
2018-08-28T11:47:21.626Z,2.20
2018-08-28T11:49:49.778Z,2.83
2018-08-28T11:52:17.956Z,2.70
2018-08-28T11:54:46.026Z,2.17
2018-08-28T11:57:14.153Z,2.13
2018-08-28T11:59:42.293Z,2.30
2018-08-28T12:02:10.447Z,2.30
2018-08-28T12:04:38.613Z,2.20
2018-08-28T12:07:07.406Z,3.33
2018-08-28T12:09:35.517Z,3.00
2018-08-28T12:12:03.722Z,2.60
2018-08-28T12:14:31.957Z,2.50
2018-08-28T12:17:00.192Z,2.50
2018-08-28T12:19:28.466Z,2.20
2018-08-28T12:21:56.707Z,2.37
2018-08-28T12:24:25.060Z,3.03
2018-08-28T12:26:53.354Z,2.80
2018-08-28T12:29:21.515Z,2.57
2018-08-28T12:31:49.661Z,2.13
2018-08-28T12:34:17.809Z,2.80
2018-08-28T12:36:46.002Z,2.77
2018-08-28T12:39:14.794Z,2.23
2018-08-28T12:41:42.969Z,2.50
2018-08-28T12:44:11.441Z,3.30
2018-08-28T12:46:39.495Z,2.73
2018-08-28T12:49:07.653Z,2.73
2018-08-28T12:51:35.784Z,3.00
2018-08-28T12:54:04.968Z,2.40
2018-08-28T12:56:33.261Z,2.30
2018-08-28T12:59:01.869Z,2.60
2018-08-28T13:01:30.033Z,2.30
2018-08-28T13:03:59.150Z,2.13
2018-08-28T13:06:27.611Z,2.10
2018-08-28T13:08:56.414Z,2.90
2018-08-28T13:11:24.873Z,2.33
2018-08-28T13:13:53.010Z,2.60
2018-08-28T13:16:21.148Z,2.23
2018-08-28T13:18:49.318Z,3.07
2018-08-28T13:21:17.491Z,3.73
2018-08-28T13:23:45.593Z,2.90
2018-08-28T13:26:13.772Z,2.50
2018-08-28T13:28:42.013Z,2.53
2018-08-28T13:31:10.235Z,2.77
2018-08-28T13:33:38.354Z,3.27
2018-08-28T13:36:06.506Z,2.77
2018-08-28T13:38:34.717Z,2.93
2018-08-28T13:41:03.191Z,2.30
2018-08-28T13:43:31.542Z,3.37
2018-08-28T13:45:59.767Z,2.70
2018-08-28T13:48:28.159Z,2.30
2018-08-28T13:50:56.630Z,2.93
2018-08-28T13:53:25.167Z,2.90
2018-08-28T13:55:53.478Z,2.90
2018-08-28T13:58:21.621Z,2.10
2018-08-28T14:00:49.741Z,2.70
2018-08-28T14:03:17.905Z,2.90
2018-08-28T14:05:46.070Z,2.00
2018-08-28T14:08:14.258Z,2.47
2018-08-28T14:10:42.399Z,2.03
2018-08-28T14:13:10.589Z,2.90
2018-08-28T14:15:38.693Z,2.60
2018-08-28T14:18:06.906Z,2.70
2018-08-28T14:20:35.167Z,2.80
2018-08-28T14:23:03.434Z,2.30
2018-08-28T14:25:31.699Z,2.77
2018-08-28T14:27:59.926Z,2.40
2018-08-28T14:30:28.265Z,3.07
2018-08-28T14:32:56.601Z,3.17
2018-08-28T14:35:25.333Z,3.00
2018-08-28T14:37:53.543Z,2.50
2018-08-28T14:40:21.722Z,2.17
2018-08-28T14:42:49.883Z,2.63
2018-08-28T14:45:18.124Z,3.37
2018-08-28T14:47:46.274Z,2.90
2018-08-28T14:50:14.471Z,2.53
2018-08-28T14:52:42.593Z,2.90
2018-08-28T14:55:10.778Z,3.07
2018-08-28T14:57:38.932Z,2.70
2018-08-28T15:00:07.155Z,3.27
2018-08-28T15:02:36.121Z,2.50
2018-08-28T15:05:04.402Z,2.90
2018-08-28T15:07:32.708Z,3.10
2018-08-28T15:10:00.998Z,1.77
2018-08-28T15:12:29.288Z,2.90
2018-08-28T15:14:57.569Z,2.90
2018-08-28T15:17:26.026Z,3.40
2018-08-28T15:19:56.088Z,2.53
2018-08-28T15:22:24.626Z,2.30
2018-08-28T15:24:52.852Z,2.73
2018-08-28T15:27:21.102Z,2.50
2018-08-28T15:29:49.353Z,2.20
2018-08-28T15:32:17.611Z,3.17
2018-08-28T15:34:45.769Z,3.23
2018-08-28T15:37:13.937Z,3.17
2018-08-28T15:39:42.113Z,2.33
2018-08-28T15:42:10.818Z,3.03
2018-08-28T15:44:38.990Z,2.27
2018-08-28T15:47:12.993Z,3.17
2018-08-28T15:49:41.174Z,2.87
2018-08-28T15:52:09.301Z,3.07
2018-08-28T15:54:37.457Z,2.63
2018-08-28T15:57:05.627Z,3.53
2018-08-28T15:59:33.853Z,3.13
2018-08-28T16:02:02.158Z,3.40
2018-08-28T16:04:30.539Z,2.57
2018-08-28T16:06:58.718Z,2.93
2018-08-28T16:09:27.102Z,2.47
2018-08-28T16:11:55.704Z,3.20
2018-08-28T16:14:24.070Z,2.87
2018-08-28T16:16:52.230Z,2.50
2018-08-28T16:19:20.402Z,3.00
2018-08-28T16:21:53.198Z,2.10
2018-08-28T16:24:21.970Z,2.87
2018-08-28T16:26:51.543Z,3.40
2018-08-28T16:29:19.751Z,3.37
2018-08-28T16:31:47.941Z,2.30
2018-08-28T16:34:16.080Z,3.73
2018-08-28T16:36:44.220Z,3.40
2018-08-28T16:41:53.347Z,2.80
2018-08-28T16:44:21.515Z,3.00
2018-08-28T16:46:49.770Z,2.73
2018-08-28T16:49:17.989Z,2.80
2018-08-28T16:51:46.133Z,3.03
2018-08-28T16:54:14.389Z,3.17
2018-08-28T16:56:42.629Z,3.57
2018-08-28T16:59:10.950Z,3.27
2018-08-28T17:01:39.458Z,2.33
2018-08-28T17:04:07.551Z,3.10
2018-08-28T17:06:35.736Z,2.50
2018-08-28T17:09:04.934Z,3.20
2018-08-28T17:11:33.103Z,3.17
2018-08-28T17:14:01.217Z,2.77
2018-08-28T17:16:29.374Z,3.40
2018-08-28T17:18:57.499Z,3.00
2018-08-28T17:21:25.693Z,2.80
2018-08-28T17:23:53.826Z,2.77
2018-08-28T17:26:25.101Z,2.87
2018-08-28T17:28:53.422Z,3.47
2018-08-28T17:31:22.513Z,2.80
2018-08-28T17:33:50.793Z,3.00
2018-08-28T17:36:18.971Z,2.70
2018-08-28T17:38:47.663Z,3.00
2018-08-28T17:41:15.790Z,3.37
2018-08-28T17:43:43.985Z,3.93
2018-08-28T17:46:12.604Z,2.60
2018-08-28T17:48:41.148Z,3.30
2018-08-28T17:51:09.525Z,2.80
2018-08-28T17:53:38.168Z,2.90
2018-08-28T17:56:06.486Z,4.40
2018-08-28T17:58:34.764Z,2.50
2018-08-28T18:01:02.929Z,3.50
2018-08-28T18:03:31.200Z,3.83
2018-08-28T18:05:59.327Z,2.87
2018-08-28T18:08:27.485Z,3.83
2018-08-28T18:10:55.616Z,3.00
2018-08-28T18:13:23.771Z,3.80
2018-08-28T18:15:51.905Z,2.70
2018-08-28T18:18:20.079Z,2.97
2018-08-28T18:20:48.216Z,3.77
2018-08-28T18:23:16.358Z,4.23
2018-08-28T18:25:44.570Z,3.93
2018-08-28T18:28:12.781Z,3.30
2018-08-28T18:30:41.412Z,3.63
2018-08-28T18:33:09.571Z,2.23
2018-08-28T18:35:37.873Z,3.80
2018-08-28T18:38:06.079Z,3.70
2018-08-28T18:40:34.273Z,3.97
2018-08-28T18:43:02.420Z,3.10
2018-08-28T18:45:30.561Z,2.87
2018-08-28T18:47:58.693Z,3.00
2018-08-28T18:50:26.838Z,3.17
2018-08-28T18:52:55.043Z,2.37
2018-08-28T18:55:23.204Z,3.07
2018-08-28T18:57:51.390Z,2.37
2018-08-28T19:00:19.537Z,2.90
2018-08-28T19:02:47.822Z,2.80
2018-08-28T19:05:16.075Z,3.17
2018-08-28T19:07:44.356Z,4.07
2018-08-28T19:10:12.656Z,2.80
2018-08-28T19:12:41.037Z,2.93
2018-08-28T19:15:12.281Z,4.03
2018-08-28T19:17:40.594Z,3.90
2018-08-28T19:20:09.035Z,2.90
2018-08-28T19:22:37.465Z,2.60
2018-08-28T19:25:05.658Z,3.00
2018-08-28T19:27:33.828Z,3.80
2018-08-28T19:30:02.006Z,2.60
2018-08-28T19:32:30.167Z,3.83
2018-08-28T19:34:58.305Z,3.20
2018-08-28T19:37:26.538Z,5.63
2018-08-28T19:39:54.682Z,4.33
2018-08-28T19:42:22.866Z,3.27
2018-08-28T19:44:51.278Z,3.00
2018-08-28T19:47:19.803Z,2.60
2018-08-28T19:49:48.549Z,2.70
2018-08-28T19:52:16.803Z,2.70
2018-08-28T19:54:44.966Z,2.83
2018-08-28T19:57:13.132Z,2.73
2018-08-28T19:59:41.351Z,2.37
2018-08-28T20:02:09.545Z,2.53
2018-08-28T20:04:37.778Z,3.70
2018-08-28T20:07:05.983Z,2.90
2018-08-28T20:09:40.955Z,3.50
2018-08-28T20:12:09.179Z,3.53
2018-08-28T20:14:37.495Z,2.20
2018-08-28T20:17:05.576Z,2.90
2018-08-28T20:19:34.818Z,3.70
2018-08-28T20:22:02.989Z,3.13
2018-08-28T20:24:31.205Z,3.20
2018-08-28T20:26:59.578Z,2.77
2018-08-28T20:29:27.917Z,4.23
2018-08-28T20:31:56.305Z,2.97
2018-08-28T20:34:24.604Z,2.50
2018-08-28T20:36:52.926Z,3.77
2018-08-28T20:39:21.134Z,2.77
2018-08-28T20:41:49.422Z,2.60
2018-08-28T20:44:18.807Z,4.27
2018-08-28T20:46:47.052Z,4.23
2018-08-28T20:49:16.370Z,5.10
2018-08-28T20:51:44.651Z,4.77
2018-08-28T20:54:12.901Z,3.30
2018-08-28T20:56:41.121Z,2.40
2018-08-28T20:59:09.343Z,2.27
2018-08-28T21:01:39.080Z,3.53
2018-08-28T21:04:07.327Z,2.47
2018-08-28T21:06:35.544Z,2.50
2018-08-28T21:09:04.533Z,2.53
2018-08-28T21:11:32.826Z,3.20
2018-08-28T21:14:01.237Z,2.70
2018-08-28T21:16:29.558Z,5.40
2018-08-28T21:18:58.091Z,6.00
2018-08-28T21:21:26.604Z,3.50
2018-08-28T21:23:55.297Z,3.07
2018-08-28T21:26:23.726Z,2.70
2018-08-28T21:28:52.489Z,2.10
2018-08-28T21:31:21.886Z,3.70
2018-08-28T21:33:50.421Z,3.17
2018-08-28T21:36:19.115Z,2.40
2018-08-28T21:38:47.534Z,3.90
2018-08-28T21:41:15.810Z,2.63
2018-08-28T21:43:44.150Z,2.40
2018-08-28T21:46:12.345Z,3.23
2018-08-28T21:48:40.534Z,2.70
2018-08-28T21:51:08.844Z,2.63
2018-08-28T21:53:37.138Z,3.00
2018-08-28T21:56:05.529Z,2.80
2018-08-28T21:58:33.849Z,3.80
2018-08-28T22:01:07.439Z,2.67
2018-08-28T22:03:35.703Z,3.30
2018-08-28T22:06:04.065Z,2.57
2018-08-28T22:08:32.408Z,2.20
2018-08-28T22:11:00.770Z,2.13
2018-08-28T22:13:29.173Z,2.63
2018-08-28T22:15:57.588Z,2.30
2018-08-28T22:18:26.032Z,1.97
2018-08-28T22:20:56.122Z,2.37
2018-08-28T22:23:25.179Z,2.47
2018-08-28T22:25:53.543Z,2.03
2018-08-28T22:28:21.834Z,1.93
2018-08-28T22:30:50.363Z,2.37
2018-08-28T22:33:18.801Z,2.90
2018-08-28T22:35:47.069Z,3.57
2018-08-28T22:38:15.303Z,2.20
2018-08-28T22:40:43.541Z,2.70
2018-08-28T22:43:11.855Z,2.63
2018-08-28T22:45:40.233Z,2.73
2018-08-28T22:48:08.608Z,3.90
2018-08-28T22:50:37.145Z,2.97
2018-08-28T22:53:05.776Z,2.77
2018-08-28T22:55:34.155Z,3.10
2018-08-28T22:58:02.447Z,2.63
2018-08-28T23:00:30.814Z,2.43
2018-08-28T23:02:59.422Z,2.10
2018-08-28T23:05:27.727Z,3.17
2018-08-28T23:07:56.349Z,2.30
2018-08-28T23:10:24.632Z,2.30
2018-08-28T23:12:52.970Z,2.00
2018-08-28T23:15:21.304Z,1.80
2018-08-28T23:17:49.720Z,3.37
2018-08-28T23:20:18.157Z,2.53
2018-08-28T23:22:46.470Z,2.80
2018-08-28T23:25:14.780Z,1.90
2018-08-28T23:27:43.108Z,2.17
2018-08-28T23:30:11.400Z,2.93
2018-08-28T23:32:39.751Z,2.90
2018-08-28T23:35:08.008Z,2.17
2018-08-28T23:37:36.367Z,2.50
2018-08-28T23:40:04.629Z,2.20
2018-08-28T23:42:32.855Z,3.23
2018-08-28T23:45:01.231Z,2.63
2018-08-28T23:47:29.544Z,2.93
2018-08-28T23:49:57.826Z,2.67
2018-08-28T23:52:26.103Z,2.60
2018-08-28T23:54:54.396Z,3.50
2018-08-28T23:57:22.718Z,1.97
2018-08-28T23:59:51.019Z,2.60
